createdAt,value
2023-12-09T00:01:43.334Z,3.11
2023-12-09T00:04:11.838Z,3.13
2023-12-09T00:06:44.148Z,3.07
2023-12-09T00:09:14.221Z,3.20
2023-12-09T00:11:43.889Z,3.11
2023-12-09T00:14:12.224Z,3.06
2023-12-09T00:16:42.299Z,3.13
2023-12-09T00:19:15.208Z,3.09
2023-12-09T00:21:43.489Z,3.05
2023-12-09T00:24:11.833Z,3.15
2023-12-09T00:26:40.187Z,3.17
2023-12-09T00:29:09.962Z,3.14
2023-12-09T00:31:39.389Z,3.17
2023-12-09T00:34:08.072Z,3.16
2023-12-09T00:36:36.550Z,3.19
2023-12-09T00:39:04.847Z,3.18
2023-12-09T00:41:33.122Z,3.17
2023-12-09T00:44:10.466Z,3.19
2023-12-09T00:46:49.615Z,3.19
2023-12-09T00:49:18.111Z,3.18
2023-12-09T00:51:46.414Z,3.13
2023-12-09T00:54:14.735Z,3.09
2023-12-09T00:56:43.146Z,3.05
2023-12-09T00:59:11.437Z,3.06
2023-12-09T01:01:39.654Z,3.04
2023-12-09T01:04:09.792Z,3.06
2023-12-09T01:06:43.821Z,3.05
2023-12-09T01:09:12.183Z,3.02
2023-12-09T01:11:41.754Z,3.04
2023-12-09T01:14:09.977Z,3.04
2023-12-09T01:16:38.244Z,3.02
2023-12-09T01:19:06.433Z,3.04
2023-12-09T01:21:36.388Z,3.10
2023-12-09T01:24:06.051Z,3.09
2023-12-09T01:26:34.481Z,3.04
2023-12-09T01:29:04.514Z,3.02
2023-12-09T01:31:34.312Z,3.01
2023-12-09T01:34:02.759Z,3.07
2023-12-09T01:36:31.271Z,3.18
2023-12-09T01:39:01.264Z,3.15
2023-12-09T01:41:30.163Z,3.14
2023-12-09T01:43:58.485Z,3.20
2023-12-09T01:46:26.838Z,3.10
2023-12-09T01:48:55.425Z,3.08
2023-12-09T01:51:24.304Z,3.14
2023-12-09T01:53:53.249Z,3.14
2023-12-09T01:56:24.494Z,3.09
2023-12-09T01:58:53.601Z,3.14
2023-12-09T02:01:24.857Z,3.07
2023-12-09T02:03:54.044Z,3.03
2023-12-09T02:06:22.910Z,3.03
2023-12-09T02:08:51.770Z,3.07
2023-12-09T02:11:33.051Z,3.06
2023-12-09T02:14:08.484Z,3.03
2023-12-09T02:16:44.090Z,2.95
2023-12-09T02:19:15.503Z,2.98
2023-12-09T02:21:59.401Z,2.83
2023-12-09T02:24:29.768Z,2.73
2023-12-09T02:27:06.902Z,2.59
2023-12-09T02:29:37.929Z,2.50
2023-12-09T02:32:09.421Z,2.43
2023-12-09T02:34:40.798Z,2.36
2023-12-09T02:37:12.703Z,2.33
2023-12-09T02:39:43.754Z,2.30
2023-12-09T02:42:12.677Z,2.33
2023-12-09T02:44:44.019Z,2.26
2023-12-09T02:47:16.147Z,2.17
2023-12-09T02:49:44.869Z,2.11
2023-12-09T02:52:13.344Z,2.07
2023-12-09T02:54:43.126Z,2.00
2023-12-09T02:57:11.459Z,1.95
2023-12-09T02:59:39.878Z,1.89
2023-12-09T03:02:08.323Z,1.88
2023-12-09T03:04:36.898Z,1.87
2023-12-09T03:07:05.948Z,1.89
2023-12-09T03:09:34.312Z,1.91
2023-12-09T03:12:04.799Z,1.89
2023-12-09T03:14:33.121Z,1.87
2023-12-09T03:17:01.494Z,1.86
2023-12-09T03:19:29.769Z,1.79
2023-12-09T03:21:58.890Z,1.72
2023-12-09T03:24:27.343Z,1.67
2023-12-09T03:26:56.422Z,1.64
2023-12-09T03:29:26.345Z,1.61
2023-12-09T03:31:54.619Z,1.61
2023-12-09T03:34:23.071Z,1.62
2023-12-09T03:36:51.346Z,1.64
2023-12-09T03:39:19.668Z,1.65
2023-12-09T03:41:48.317Z,1.64
2023-12-09T03:44:16.565Z,1.72
2023-12-09T03:46:46.762Z,1.83
2023-12-09T03:49:15.183Z,1.90
2023-12-09T03:51:43.481Z,1.96
2023-12-09T03:54:11.761Z,1.93
2023-12-09T03:56:40.002Z,1.98
2023-12-09T03:59:08.595Z,1.91
2023-12-09T04:01:37.468Z,1.87
2023-12-09T04:04:07.388Z,1.86
2023-12-09T04:06:36.209Z,1.76
2023-12-09T04:09:05.513Z,1.72
2023-12-09T04:11:33.951Z,1.61
2023-12-09T04:14:02.174Z,1.61
2023-12-09T04:16:30.451Z,1.54
2023-12-09T04:18:58.864Z,1.49
2023-12-09T04:21:28.763Z,1.52
2023-12-09T04:23:57.261Z,1.58
2023-12-09T04:26:27.145Z,1.60
2023-12-09T04:28:55.506Z,1.58
2023-12-09T04:31:23.745Z,1.53
2023-12-09T04:33:52.086Z,1.61
2023-12-09T04:36:20.549Z,1.64
2023-12-09T04:38:50.199Z,1.46
2023-12-09T04:41:18.488Z,1.46
2023-12-09T04:43:46.709Z,1.56
2023-12-09T04:46:15.025Z,1.54
2023-12-09T04:48:44.641Z,1.58
2023-12-09T04:51:13.158Z,1.65
2023-12-09T04:53:41.917Z,1.57
2023-12-09T04:56:12.359Z,1.48
2023-12-09T04:58:40.676Z,1.52
2023-12-09T05:01:09.881Z,1.51
2023-12-09T05:03:38.310Z,1.64
2023-12-09T05:06:07.256Z,1.60
2023-12-09T05:08:35.552Z,1.56
2023-12-09T05:11:03.846Z,1.51
2023-12-09T05:13:33.526Z,1.49
2023-12-09T05:16:01.676Z,1.48
2023-12-09T05:18:30.490Z,1.44
2023-12-09T05:20:58.815Z,1.34
2023-12-09T05:23:27.161Z,1.33
2023-12-09T05:25:55.869Z,1.24
2023-12-09T05:28:24.300Z,1.27
2023-12-09T05:30:54.110Z,1.22
2023-12-09T05:33:22.562Z,1.26
2023-12-09T05:35:50.968Z,1.16
2023-12-09T05:38:19.275Z,1.14
2023-12-09T05:40:47.577Z,1.14
2023-12-09T05:43:15.988Z,1.18
2023-12-09T05:45:44.689Z,1.23
2023-12-09T05:48:14.678Z,1.27
2023-12-09T05:50:43.170Z,1.33
2023-12-09T05:53:11.551Z,1.38
2023-12-09T05:55:40.437Z,1.32
2023-12-09T05:58:08.778Z,1.24
2023-12-09T06:00:37.366Z,1.23
2023-12-09T06:03:05.928Z,1.30
2023-12-09T06:05:35.822Z,1.24
2023-12-09T06:08:04.841Z,1.26
2023-12-09T06:10:42.758Z,1.31
2023-12-09T06:13:11.266Z,1.27
2023-12-09T06:15:41.852Z,1.36
2023-12-09T06:18:10.845Z,1.30
2023-12-09T06:20:40.653Z,1.15
2023-12-09T06:23:08.897Z,1.27
2023-12-09T06:25:37.198Z,1.27
2023-12-09T06:28:06.037Z,1.20
2023-12-09T06:30:34.791Z,1.21
2023-12-09T06:33:03.387Z,1.19
2023-12-09T06:35:31.824Z,1.11
2023-12-09T06:38:01.568Z,1.36
2023-12-09T06:40:29.833Z,1.30
2023-12-09T06:42:58.260Z,1.22
2023-12-09T06:45:26.690Z,1.40
2023-12-09T06:47:56.520Z,1.54
2023-12-09T06:50:24.885Z,1.61
2023-12-09T06:52:53.224Z,1.63
2023-12-09T06:55:22.971Z,1.64
2023-12-09T06:57:51.172Z,1.62
2023-12-09T07:00:20.163Z,1.55
2023-12-09T07:02:56.704Z,1.47
2023-12-09T07:05:28.852Z,1.42
2023-12-09T07:07:57.722Z,1.39
2023-12-09T07:10:27.463Z,1.34
2023-12-09T07:12:56.037Z,1.36
2023-12-09T07:15:24.333Z,1.39
2023-12-09T07:17:52.727Z,1.30
2023-12-09T07:20:21.118Z,1.40
2023-12-09T07:22:49.463Z,1.54
2023-12-09T07:25:17.822Z,1.58
2023-12-09T07:27:49.488Z,1.63
2023-12-09T07:30:18.050Z,1.59
2023-12-09T07:32:48.430Z,1.62
2023-12-09T07:35:18.305Z,1.59
2023-12-09T07:37:48.301Z,1.60
2023-12-09T07:40:17.398Z,1.65
2023-12-09T07:42:48.112Z,1.68
2023-12-09T07:45:16.858Z,1.67
2023-12-09T07:47:45.218Z,1.62
2023-12-09T07:50:13.675Z,1.61
2023-12-09T07:52:42.232Z,1.65
2023-12-09T07:55:10.838Z,1.66
2023-12-09T07:57:39.231Z,1.66
2023-12-09T08:00:10.753Z,1.60
2023-12-09T08:02:40.138Z,1.59
2023-12-09T08:05:09.202Z,1.56
2023-12-09T08:07:38.019Z,1.61
2023-12-09T08:10:07.855Z,1.67
2023-12-09T08:12:36.186Z,1.73
2023-12-09T08:15:04.869Z,1.78
2023-12-09T08:17:34.762Z,1.91
2023-12-09T08:20:07.211Z,1.92
2023-12-09T08:22:35.563Z,1.92
2023-12-09T08:25:05.280Z,2.05
2023-12-09T08:27:33.593Z,2.17
2023-12-09T08:30:01.881Z,2.21
2023-12-09T08:32:30.423Z,2.25
2023-12-09T08:35:07.405Z,2.32
2023-12-09T08:37:38.457Z,2.40
2023-12-09T08:40:12.421Z,2.54
2023-12-09T08:42:41.554Z,2.70
2023-12-09T08:45:12.247Z,2.70
2023-12-09T08:47:44.859Z,2.86
2023-12-09T08:52:47.364Z,2.98
2023-12-09T08:55:16.800Z,3.05
2023-12-09T08:57:45.132Z,3.14
2023-12-09T09:00:15.537Z,3.24
2023-12-09T09:02:43.873Z,3.27
2023-12-09T09:05:14.518Z,3.43
2023-12-09T09:07:47.189Z,3.45
2023-12-09T09:10:18.400Z,3.57
2023-12-09T09:12:48.338Z,3.61
2023-12-09T09:15:18.316Z,3.66
2023-12-09T09:17:46.596Z,3.85
2023-12-09T09:20:15.033Z,3.91
2023-12-09T09:22:46.302Z,3.95
2023-12-09T09:25:18.609Z,4.02
2023-12-09T09:27:49.557Z,4.03
2023-12-09T09:30:21.607Z,4.09
2023-12-09T09:32:50.166Z,4.17
2023-12-09T09:35:18.510Z,4.18
2023-12-09T09:37:46.769Z,4.33
2023-12-09T09:40:18.123Z,4.37
2023-12-09T09:42:52.784Z,4.42
2023-12-09T09:45:28.183Z,4.43
2023-12-09T09:48:04.222Z,4.50
2023-12-09T09:50:37.955Z,4.51
2023-12-09T09:53:10.111Z,4.60
2023-12-09T09:55:42.918Z,4.84
2023-12-09T09:58:12.181Z,4.86
2023-12-09T10:00:41.208Z,4.87
2023-12-09T10:03:10.983Z,4.93
2023-12-09T10:05:40.247Z,4.85
2023-12-09T10:08:08.572Z,5.07
2023-12-09T10:10:37.453Z,5.09
2023-12-09T10:13:07.310Z,5.13
2023-12-09T10:15:35.624Z,5.10
2023-12-09T10:18:06.956Z,5.17
2023-12-09T10:20:37.190Z,5.27
2023-12-09T10:23:09.700Z,5.43
2023-12-09T10:25:38.091Z,5.45
2023-12-09T10:28:10.201Z,5.44
2023-12-09T10:30:41.085Z,5.45
2023-12-09T10:33:10.970Z,5.51
2023-12-09T10:35:39.929Z,5.65
2023-12-09T10:38:08.257Z,5.68
2023-12-09T10:40:36.644Z,5.72
2023-12-09T10:43:08.347Z,5.81
2023-12-09T10:45:38.340Z,5.85
2023-12-09T10:48:08.489Z,5.86
2023-12-09T10:50:38.972Z,5.94
2023-12-09T10:53:07.703Z,5.96
2023-12-09T10:55:35.985Z,5.97
2023-12-09T10:58:06.929Z,5.98
2023-12-09T11:00:38.061Z,5.98
2023-12-09T11:03:09.586Z,6.02
2023-12-09T11:05:46.664Z,6.06
2023-12-09T11:08:16.972Z,6.09
2023-12-09T11:10:45.557Z,6.09
2023-12-09T11:13:15.892Z,6.16
2023-12-09T11:15:44.570Z,6.19
2023-12-09T11:18:19.055Z,6.30
2023-12-09T11:20:48.010Z,6.32
2023-12-09T11:23:16.553Z,6.26
2023-12-09T11:25:45.918Z,6.28
2023-12-09T11:28:14.988Z,6.34
2023-12-09T11:30:46.125Z,6.41
2023-12-09T11:33:17.758Z,6.48
2023-12-09T11:35:47.641Z,6.61
2023-12-09T11:38:17.718Z,6.57
2023-12-09T11:40:47.626Z,6.44
2023-12-09T11:43:19.203Z,6.40
2023-12-09T11:45:49.101Z,6.55
2023-12-09T11:48:20.001Z,6.63
2023-12-09T11:50:48.458Z,6.67
2023-12-09T11:53:16.769Z,6.75
2023-12-09T11:55:45.465Z,6.61
2023-12-09T11:58:13.721Z,6.68
2023-12-09T12:00:42.111Z,6.70
2023-12-09T12:03:10.457Z,6.60
2023-12-09T12:05:40.675Z,6.67
2023-12-09T12:08:09.973Z,6.72
2023-12-09T12:10:38.637Z,6.76
2023-12-09T12:13:07.457Z,6.73
2023-12-09T12:15:36.520Z,6.83
2023-12-09T12:18:05.166Z,6.78
2023-12-09T12:20:34.090Z,6.80
2023-12-09T12:23:05.305Z,6.70
2023-12-09T12:25:34.075Z,6.82
2023-12-09T12:28:02.462Z,6.90
2023-12-09T12:30:32.468Z,6.87
2023-12-09T12:33:04.915Z,6.82
2023-12-09T12:35:35.018Z,6.88
2023-12-09T12:38:05.622Z,6.98
2023-12-09T12:40:34.156Z,6.96
2023-12-09T12:43:06.217Z,7.02
2023-12-09T12:45:35.022Z,7.02
2023-12-09T12:48:03.540Z,6.88
2023-12-09T12:50:32.065Z,6.85
2023-12-09T12:53:00.718Z,6.83
2023-12-09T12:55:30.634Z,6.86
2023-12-09T12:57:59.247Z,6.80
2023-12-09T13:00:28.392Z,6.89
2023-12-09T13:02:57.277Z,6.89
2023-12-09T13:05:25.811Z,6.86
2023-12-09T13:07:54.543Z,6.91
2023-12-09T13:10:24.142Z,6.81
2023-12-09T13:12:56.505Z,6.84
2023-12-09T13:15:25.128Z,6.96
2023-12-09T13:17:53.674Z,6.96
2023-12-09T13:20:22.420Z,6.98
2023-12-09T13:22:50.955Z,6.89
2023-12-09T13:25:19.371Z,6.83
2023-12-09T13:27:47.924Z,6.92
2023-12-09T13:30:20.928Z,7.01
2023-12-09T13:32:49.435Z,7.01
2023-12-09T13:35:19.601Z,7.09
2023-12-09T13:37:48.268Z,6.88
2023-12-09T13:40:17.141Z,6.81
2023-12-09T13:42:45.593Z,6.96
2023-12-09T13:45:14.792Z,6.86
2023-12-09T13:47:45.885Z,6.69
2023-12-09T13:50:14.231Z,6.68
2023-12-09T13:52:42.816Z,6.79
2023-12-09T13:55:11.515Z,6.79
2023-12-09T13:57:39.919Z,6.73
2023-12-09T14:00:12.278Z,6.66
2023-12-09T14:02:41.599Z,6.74
2023-12-09T14:05:15.253Z,6.67
2023-12-09T14:07:44.726Z,6.58
2023-12-09T14:10:14.536Z,6.55
2023-12-09T14:12:45.675Z,6.59
2023-12-09T14:15:14.428Z,6.61
2023-12-09T14:17:44.870Z,6.57
2023-12-09T14:20:17.205Z,6.42
2023-12-09T14:22:47.070Z,6.28
2023-12-09T14:25:15.983Z,6.22
2023-12-09T14:27:44.916Z,6.16
2023-12-09T14:30:14.161Z,6.11
2023-12-09T14:32:46.169Z,6.02
2023-12-09T14:35:17.312Z,5.96
2023-12-09T14:37:49.633Z,5.86
2023-12-09T14:40:18.392Z,5.76
2023-12-09T14:42:46.949Z,5.68
2023-12-09T14:45:15.731Z,5.62
2023-12-09T14:47:53.802Z,5.54
2023-12-09T14:50:36.487Z,5.48
2023-12-09T14:53:24.883Z,5.42
2023-12-09T14:55:55.262Z,5.35
2023-12-09T14:58:23.922Z,5.35
2023-12-09T15:00:52.423Z,5.33
2023-12-09T15:03:21.121Z,5.28
2023-12-09T15:05:51.200Z,5.23
2023-12-09T15:08:20.087Z,5.17
2023-12-09T15:10:48.381Z,5.12
2023-12-09T15:13:16.647Z,5.06
2023-12-09T15:15:44.972Z,5.03
2023-12-09T15:18:14.040Z,4.97
2023-12-09T15:20:42.877Z,4.89
2023-12-09T15:23:12.655Z,4.83
2023-12-09T15:25:40.971Z,4.80
2023-12-09T15:28:09.340Z,4.74
2023-12-09T15:30:37.874Z,4.67
2023-12-09T15:33:13.738Z,4.62
2023-12-09T15:35:42.757Z,4.55
2023-12-09T15:38:12.591Z,4.44
2023-12-09T15:40:41.245Z,4.37
2023-12-09T15:43:09.494Z,4.31
2023-12-09T15:45:37.859Z,4.24
2023-12-09T15:48:09.037Z,4.17
2023-12-09T15:50:37.546Z,4.20
2023-12-09T15:53:07.047Z,4.14
2023-12-09T15:55:37.166Z,4.08
2023-12-09T15:58:05.690Z,4.04
2023-12-09T16:00:34.804Z,3.97
2023-12-09T16:03:03.328Z,3.93
2023-12-09T16:05:31.726Z,3.87
2023-12-09T16:08:02.267Z,3.83
2023-12-09T16:10:30.910Z,3.78
2023-12-09T16:13:01.510Z,3.79
2023-12-09T16:15:29.847Z,3.78
2023-12-09T16:17:58.501Z,3.75
2023-12-09T16:20:27.634Z,3.70
2023-12-09T16:22:56.583Z,3.65
2023-12-09T16:25:30.069Z,3.65
2023-12-09T16:27:59.168Z,3.61
2023-12-09T16:30:30.305Z,3.57
2023-12-09T16:32:58.800Z,3.54
2023-12-09T16:35:27.362Z,3.51
2023-12-09T16:37:56.293Z,3.52
2023-12-09T16:40:25.053Z,3.45
2023-12-09T16:42:53.539Z,3.40
2023-12-09T16:45:22.244Z,3.32
2023-12-09T16:47:52.656Z,3.28
2023-12-09T16:50:21.267Z,3.19
2023-12-09T16:52:50.172Z,3.17
2023-12-09T16:55:21.393Z,3.13
2023-12-09T16:57:50.827Z,3.12
2023-12-09T17:00:20.388Z,3.14
2023-12-09T17:02:48.850Z,3.20
2023-12-09T17:05:18.816Z,3.21
2023-12-09T17:07:47.930Z,3.22
2023-12-09T17:10:16.319Z,3.26
2023-12-09T17:12:44.692Z,3.19
2023-12-09T17:15:17.664Z,3.11
2023-12-09T17:17:47.283Z,3.00
2023-12-09T17:20:16.024Z,2.96
2023-12-09T17:22:45.875Z,2.97
2023-12-09T17:25:15.002Z,3.04
2023-12-09T17:27:46.282Z,3.22
2023-12-09T17:30:17.556Z,3.15
2023-12-09T17:32:46.345Z,3.12
2023-12-09T17:35:14.753Z,3.16
2023-12-09T17:37:43.324Z,3.18
2023-12-09T17:40:14.347Z,3.17
2023-12-09T17:42:42.678Z,3.13
2023-12-09T17:45:12.049Z,3.14
2023-12-09T17:47:40.524Z,3.06
2023-12-09T17:50:09.331Z,3.03
2023-12-09T17:52:38.366Z,3.05
2023-12-09T17:55:10.240Z,3.12
2023-12-09T17:57:40.541Z,3.10
2023-12-09T18:00:11.605Z,3.06
2023-12-09T18:02:40.845Z,3.01
2023-12-09T18:05:10.058Z,3.04
2023-12-09T18:07:38.504Z,2.89
2023-12-09T18:10:08.537Z,2.94
2023-12-09T18:12:36.980Z,2.88
2023-12-09T18:15:08.425Z,2.92
2023-12-09T18:17:39.629Z,2.95
2023-12-09T18:20:08.966Z,2.88
2023-12-09T18:22:37.322Z,2.76
2023-12-09T18:25:06.629Z,2.68
2023-12-09T18:27:36.333Z,2.61
2023-12-09T18:30:06.996Z,2.55
2023-12-09T18:32:39.861Z,2.55
2023-12-09T18:35:12.418Z,2.60
2023-12-09T18:37:58.664Z,2.53
2023-12-09T18:40:27.774Z,2.45
2023-12-09T18:42:57.186Z,2.40
2023-12-09T18:45:27.162Z,2.36
2023-12-09T18:47:55.878Z,2.35
2023-12-09T18:50:24.316Z,2.35
2023-12-09T18:52:56.934Z,2.33
2023-12-09T18:55:25.352Z,2.30
2023-12-09T18:57:54.069Z,2.27
2023-12-09T19:00:23.780Z,2.28
2023-12-09T19:02:55.942Z,2.29
2023-12-09T19:05:24.545Z,2.26
2023-12-09T19:07:52.905Z,2.28
2023-12-09T19:10:21.244Z,2.29
2023-12-09T19:12:49.758Z,2.27
2023-12-09T19:15:20.180Z,2.25
2023-12-09T19:17:48.756Z,2.26
2023-12-09T19:20:18.589Z,2.16
2023-12-09T19:22:46.996Z,2.08
2023-12-09T19:25:16.435Z,2.03
2023-12-09T19:27:45.401Z,1.93
2023-12-09T19:30:15.656Z,1.84
2023-12-09T19:32:43.964Z,1.74
2023-12-09T19:35:12.715Z,1.68
2023-12-09T19:37:45.804Z,1.61
2023-12-09T19:40:14.740Z,1.57
2023-12-09T19:42:43.542Z,1.51
2023-12-09T19:45:12.391Z,1.58
2023-12-09T19:47:40.833Z,1.55
2023-12-09T19:50:09.980Z,1.48
2023-12-09T19:52:38.567Z,1.45
2023-12-09T19:55:09.336Z,1.38
2023-12-09T19:57:37.893Z,1.30
2023-12-09T20:00:08.706Z,1.25
2023-12-09T20:02:37.284Z,1.19
2023-12-09T20:05:07.121Z,1.15
2023-12-09T20:07:35.949Z,1.10
2023-12-09T20:10:04.542Z,1.08
2023-12-09T20:12:34.337Z,1.03
2023-12-09T20:15:04.272Z,0.98
2023-12-09T20:17:32.524Z,0.96
2023-12-09T20:20:00.925Z,0.96
2023-12-09T20:22:29.667Z,0.98
2023-12-09T20:24:58.503Z,0.99
2023-12-09T20:27:26.800Z,0.96
2023-12-09T20:29:56.695Z,0.96
2023-12-09T20:32:26.072Z,0.95
2023-12-09T20:34:58.596Z,0.89
2023-12-09T20:37:30.351Z,0.85
2023-12-09T20:40:01.408Z,0.83
2023-12-09T20:42:30.019Z,0.81
2023-12-09T20:45:03.314Z,0.80
2023-12-09T20:47:31.724Z,0.83
2023-12-09T20:50:00.180Z,0.84
2023-12-09T20:52:29.010Z,0.84
2023-12-09T20:54:57.605Z,0.82
2023-12-09T20:57:25.923Z,0.89
2023-12-09T20:59:54.385Z,0.88
2023-12-09T21:02:25.492Z,0.92
2023-12-09T21:04:54.991Z,0.92
2023-12-09T21:07:23.892Z,0.86
2023-12-09T21:09:52.706Z,0.89
2023-12-09T21:12:21.226Z,0.89
2023-12-09T21:14:49.562Z,0.82
2023-12-09T21:17:17.998Z,0.69
2023-12-09T21:19:47.773Z,0.71
2023-12-09T21:22:16.249Z,0.63
2023-12-09T21:24:44.537Z,0.70
2023-12-09T21:27:12.997Z,0.67
2023-12-09T21:29:41.380Z,0.69
2023-12-09T21:32:10.603Z,0.62
2023-12-09T21:34:38.911Z,0.65
2023-12-09T21:37:08.890Z,0.59
2023-12-09T21:39:38.248Z,0.57
2023-12-09T21:42:08.726Z,0.54
2023-12-09T21:44:37.289Z,0.50
2023-12-09T21:47:06.080Z,0.51
2023-12-09T21:49:34.546Z,0.45
2023-12-09T21:52:02.842Z,0.39
2023-12-09T21:54:32.625Z,0.33
2023-12-09T21:57:01.167Z,0.29
2023-12-09T21:59:30.086Z,0.32
2023-12-09T22:02:00.968Z,0.30
2023-12-09T22:04:29.568Z,0.36
2023-12-09T22:06:58.016Z,0.26
2023-12-09T22:09:26.746Z,0.13
2023-12-09T22:11:56.698Z,0.15
2023-12-09T22:14:25.285Z,-0.03
2023-12-09T22:16:54.694Z,-0.12
2023-12-09T22:19:23.121Z,-0.16
2023-12-09T22:21:53.122Z,-0.15
2023-12-09T22:24:21.476Z,-0.25
2023-12-09T22:26:49.848Z,-0.28
2023-12-09T22:29:22.032Z,-0.28
2023-12-09T22:31:50.335Z,-0.28
2023-12-09T22:34:18.862Z,-0.20
2023-12-09T22:36:48.159Z,-0.23
2023-12-09T22:39:17.396Z,-0.28
2023-12-09T22:41:45.846Z,-0.29
2023-12-09T22:44:14.378Z,-0.31
2023-12-09T22:46:44.058Z,-0.32
2023-12-09T22:49:12.566Z,-0.33
2023-12-09T22:51:41.082Z,-0.34
2023-12-09T22:54:09.821Z,-0.39
2023-12-09T22:56:38.080Z,-0.40
2023-12-09T22:59:06.496Z,-0.42
2023-12-09T23:01:36.118Z,-0.45
2023-12-09T23:04:06.436Z,-0.46
2023-12-09T23:06:34.765Z,-0.49
2023-12-09T23:09:03.458Z,-0.54
2023-12-09T23:11:31.804Z,-0.47
2023-12-09T23:14:00.156Z,-0.38
2023-12-09T23:16:28.657Z,-0.36
2023-12-09T23:18:57.980Z,-0.42
2023-12-09T23:21:27.910Z,-0.41
2023-12-09T23:23:56.320Z,-0.48
2023-12-09T23:26:24.702Z,-0.43
2023-12-09T23:28:52.993Z,-0.48
2023-12-09T23:31:28.692Z,-0.50
2023-12-09T23:34:04.395Z,-0.53
2023-12-09T23:36:34.200Z,-0.58
2023-12-09T23:39:02.544Z,-0.61
2023-12-09T23:41:31.698Z,-0.48
2023-12-09T23:44:00.091Z,-0.44
2023-12-09T23:46:29.467Z,-0.56
2023-12-09T23:48:59.554Z,-0.62
2023-12-09T23:51:28.020Z,-0.70
2023-12-09T23:53:57.949Z,-0.56
2023-12-09T23:56:26.300Z,-0.75
2023-12-09T23:58:54.617Z,-0.84
